Time;durP1;ratioP1;P1;durP2;ratioP2;P2;SDS_P1;SDS_P2;PMS_P1;PMS_P2;Temp;Humidity;BMP_temperature;BMP_pressure;BME280_temperature;BME280_humidity;BME280_pressure;Samples;Min_cycle;Max_cycle;Signal;HPM_P1;HPM_P2
2021/07/21 00:01:38;;;;;;;;;;;;;;;28.19;39.55;97738.06;5026053;28;1910;-50
2021/07/21 00:04:04;;;;;;;;;;;;;;;28.39;38.89;97736.38;5019856;28;1558;-49
2021/07/21 00:08:58;;;;;;;;;;;;;;;28.39;39.23;97731.06;5028549;28;1449;-51
2021/07/21 00:14:19;;;;;;;;;;;;;;;28.17;39.41;97733.88;5029954;28;1538;-51
2021/07/21 00:16:50;;;;;;;;;;;;;;;28.22;39.21;97734.34;5026049;28;1319;-51
2021/07/21 00:21:59;;;;;;;;;;;;;;;28.25;39.27;97724.28;5006604;28;1969;-49
2021/07/21 00:24:24;;;;;;;;;;;;;;;28.16;39.42;97729.56;5009966;28;1507;-51
2021/07/21 00:26:49;;;;;;;;;;;;;;;28.38;39.08;97731.22;5008909;28;1467;-51
2021/07/21 00:29:15;;;;;;;;;;;;;;;28.27;39.12;97734.75;5009159;28;1406;-51
2021/07/21 00:31:40;;;;;;;;;;;;;;;28.31;39.09;97729.09;5010280;28;1205;-50
2021/07/21 00:34:05;;;;;;;;;;;;;;;28.24;39.20;97729.72;5008795;28;1648;-51
2021/07/21 00:36:30;;;;;;;;;;;;;;;28.31;39.23;97734.41;5010281;28;1347;-52
2021/07/21 00:38:57;;;;;;;;;;;;;;;28.19;39.42;97735.41;5009090;28;1296;-50
2021/07/21 00:41:22;;;;;;;;;;;;;;;28.28;39.22;97739.94;5009345;28;1994;-51
2021/07/21 00:43:47;;;;;;;;;;;;;;;28.25;39.05;97740.19;5009221;28;1379;-49
2021/07/21 00:46:12;;;;;;;;;;;;;;;28.35;38.86;97734.97;5010254;28;1180;-51
2021/07/21 00:48:37;;;;;;;;;;;;;;;28.33;38.91;97731.59;5007228;28;1499;-49
2021/07/21 00:51:03;;;;;;;;;;;;;;;28.36;38.94;97732.19;5006892;28;1563;-51
2021/07/21 00:53:28;;;;;;;;;;;;;;;28.30;39.17;97731.88;5007798;28;1730;-51
2021/07/21 00:55:53;;;;;;;;;;;;;;;28.17;39.25;97733.88;5009120;28;1603;-50
2021/07/21 00:58:18;;;;;;;;;;;;;;;28.33;38.98;97735.09;5007447;28;1482;-52
2021/07/21 01:00:44;;;;;;;;;;;;;;;28.41;38.67;97738.91;4997301;28;1444;-51
2021/07/21 01:03:09;;;;;;;;;;;;;;;28.36;39.09;97736.66;5003270;28;1914;-49
2021/07/21 01:05:41;;;;;;;;;;;;;;;28.29;39.04;97739.00;5006926;28;1549;-51
2021/07/21 01:08:06;;;;;;;;;;;;;;;28.34;39.03;97733.28;5008466;28;1470;-51
2021/07/21 01:10:31;;;;;;;;;;;;;;;28.26;39.33;97738.38;5008295;28;1662;-50
2021/07/21 01:12:58;;;;;;;;;;;;;;;28.24;39.21;97735.03;5007361;28;1465;-51
2021/07/21 01:15:25;;;;;;;;;;;;;;;28.26;39.06;97739.22;4999012;28;1296;-51
2021/07/21 01:17:52;;;;;;;;;;;;;;;28.34;39.19;97735.94;4998536;28;1560;-51
2021/07/21 01:20:17;;;;;;;;;;;;;;;28.30;39.08;97743.34;5009129;28;1343;-51
2021/07/21 01:22:43;;;;;;;;;;;;;;;28.27;39.23;97740.91;5009636;28;1918;-51
2021/07/21 01:25:11;;;;;;;;;;;;;;;28.26;39.23;97741.88;4998370;28;1628;-50
2021/07/21 01:27:36;;;;;;;;;;;;;;;28.24;38.89;97748.28;5007775;28;1391;-51
2021/07/21 01:30:12;;;;;;;;;;;;;;;28.25;39.25;97750.81;4999038;28;1110;-51
2021/07/21 01:32:37;;;;;;;;;;;;;;;28.05;39.33;97755.19;5006755;28;1300;-49
2021/07/21 01:35:04;;;;;;;;;;;;;;;28.13;39.48;97748.41;4998460;28;1659;-50
2021/07/21 01:37:30;;;;;;;;;;;;;;;28.18;39.02;97748.81;5006860;28;1367;-52
2021/07/21 01:39:56;;;;;;;;;;;;;;;28.28;39.13;97744.38;5008255;28;1587;-51
2021/07/21 01:42:22;;;;;;;;;;;;;;;28.21;39.01;97741.44;4999225;28;1906;-51
2021/07/21 01:44:48;;;;;;;;;;;;;;;28.24;39.28;97740.34;4998874;28;1875;-50
2021/07/21 01:47:14;;;;;;;;;;;;;;;28.26;39.13;97747.19;4999875;28;1280;-50
2021/07/21 01:49:40;;;;;;;;;;;;;;;28.27;38.86;97748.00;4998023;28;1616;-51
2021/07/21 01:52:08;;;;;;;;;;;;;;;28.24;39.09;97743.00;5008899;28;1407;-50
2021/07/21 01:54:34;;;;;;;;;;;;;;;28.13;39.07;97740.44;4996817;28;1750;-51
2021/07/21 01:56:59;;;;;;;;;;;;;;;28.13;39.03;97737.78;5008532;28;1418;-52
2021/07/21 01:59:24;;;;;;;;;;;;;;;28.13;39.33;97738.63;5009822;28;1146;-52
2021/07/21 02:01:49;;;;;;;;;;;;;;;28.31;38.97;97741.50;4998926;28;1901;-50
2021/07/21 02:04:15;;;;;;;;;;;;;;;28.24;39.34;97732.38;4998300;28;1613;-52
2021/07/21 02:06:40;;;;;;;;;;;;;;;28.25;38.95;97742.00;5008581;28;1454;-52
2021/07/21 02:09:05;;;;;;;;;;;;;;;28.37;38.34;97738.34;5012697;28;1141;-51
2021/07/21 02:11:31;;;;;;;;;;;;;;;28.28;38.77;97741.72;5000544;28;1637;-50
2021/07/21 02:13:59;;;;;;;;;;;;;;;28.27;39.01;97740.91;5010479;28;1339;-52
2021/07/21 02:16:24;;;;;;;;;;;;;;;28.25;39.11;97745.50;5001736;28;1288;-51
2021/07/21 02:18:51;;;;;;;;;;;;;;;28.22;39.18;97747.59;5010383;28;1556;-51
2021/07/21 02:21:17;;;;;;;;;;;;;;;28.24;38.91;97743.00;5002044;28;1981;-50
2021/07/21 02:23:42;;;;;;;;;;;;;;;28.31;38.71;97742.34;5011387;28;1438;-51
2021/07/21 02:26:07;;;;;;;;;;;;;;;28.41;38.59;97738.91;5000470;28;1695;-50
2021/07/21 02:28:33;;;;;;;;;;;;;;;28.26;38.80;97744.53;5000953;28;1353;-53
2021/07/21 02:30:59;;;;;;;;;;;;;;;28.16;39.13;97745.47;5004108;28;1706;-50
2021/07/21 02:33:30;;;;;;;;;;;;;;;28.24;38.82;97751.78;5000313;28;1717;-51
2021/07/21 02:35:56;;;;;;;;;;;;;;;28.18;39.15;97748.81;5003776;28;1238;-49
2021/07/21 02:38:21;;;;;;;;;;;;;;;28.19;38.88;97742.53;5009987;28;1359;-49
2021/07/21 02:40:46;;;;;;;;;;;;;;;28.27;38.66;97738.25;5010712;28;1679;-50
2021/07/21 02:43:11;;;;;;;;;;;;;;;28.30;38.91;97747.81;5010739;28;1898;-51
2021/07/21 02:45:36;;;;;;;;;;;;;;;28.23;38.98;97742.16;5012456;28;1181;-51
2021/07/21 02:48:03;;;;;;;;;;;;;;;28.07;39.44;97737.34;5010053;28;1555;-52
2021/07/21 02:50:28;;;;;;;;;;;;;;;28.21;38.99;97744.09;5012594;28;1106;-50
2021/07/21 02:52:55;;;;;;;;;;;;;;;28.22;38.70;97737.00;5000772;28;1432;-50
2021/07/21 02:55:39;;;;;;;;;;;;;;;28.18;39.23;97739.03;5002050;28;1651;-51
2021/07/21 02:58:04;;;;;;;;;;;;;;;28.16;39.21;97742.81;5009987;28;1461;-51
2021/07/21 03:00:30;;;;;;;;;;;;;;;28.22;38.63;97739.63;5012505;28;1102;-48
2021/07/21 03:02:55;;;;;;;;;;;;;;;28.27;38.83;97742.72;5000710;28;1910;-51
2021/07/21 03:05:21;;;;;;;;;;;;;;;28.33;38.84;97744.88;5003296;28;1564;-51
2021/07/21 03:07:51;;;;;;;;;;;;;;;28.18;38.89;97749.66;5002044;28;1386;-51
2021/07/21 03:10:16;;;;;;;;;;;;;;;28.15;38.94;97744.63;5010321;28;1638;-50
2021/07/21 03:12:45;;;;;;;;;;;;;;;28.16;38.82;97741.00;5008930;28;1411;-51
2021/07/21 03:15:11;;;;;;;;;;;;;;;28.22;38.81;97737.00;5003675;28;1142;-49
2021/07/21 03:17:36;;;;;;;;;;;;;;;28.14;38.92;97735.00;5000223;28;1383;-50
2021/07/21 03:20:02;;;;;;;;;;;;;;;28.19;38.87;97745.19;5010382;28;1587;-51
2021/07/21 03:22:27;;;;;;;;;;;;;;;28.13;39.07;97748.41;5010003;28;1910;-50
2021/07/21 03:24:52;;;;;;;;;;;;;;;28.25;38.67;97747.31;5010011;28;1666;-50
2021/07/21 03:27:18;;;;;;;;;;;;;;;28.29;38.59;97746.09;5000841;28;1363;-51
2021/07/21 03:29:44;;;;;;;;;;;;;;;28.15;38.58;97749.09;5011649;28;1123;-50
2021/07/21 03:32:09;;;;;;;;;;;;;;;28.04;39.13;97758.81;5010395;28;1153;-50
2021/07/21 03:34:35;;;;;;;;;;;;;;;28.27;38.70;97745.38;5000537;28;1521;-51
2021/07/21 03:37:00;;;;;;;;;;;;;;;28.08;39.14;97757.56;5011260;28;1354;-51
2021/07/21 03:39:26;;;;;;;;;;;;;;;28.20;38.84;97755.69;4999972;28;1559;-50
2021/07/21 03:41:51;;;;;;;;;;;;;;;28.33;38.62;97764.28;5007997;28;1898;-50
2021/07/21 03:44:16;;;;;;;;;;;;;;;28.18;38.59;97754.97;5000224;28;1375;-51
2021/07/21 03:46:42;;;;;;;;;;;;;;;28.10;38.99;97760.91;5001434;28;1289;-51
2021/07/21 03:49:07;;;;;;;;;;;;;;;28.20;38.89;97752.16;5008254;28;1829;-51
2021/07/21 03:51:34;;;;;;;;;;;;;;;28.19;38.42;97761.09;5011449;28;1118;-51
2021/07/21 03:53:59;;;;;;;;;;;;;;;28.23;38.82;97762.53;5000607;28;1177;-51
2021/07/21 03:56:25;;;;;;;;;;;;;;;28.12;38.95;97762.59;5009704;28;1626;-51
2021/07/21 03:58:50;;;;;;;;;;;;;;;28.24;38.46;97765.03;5010206;28;1340;-51
2021/07/21 04:01:15;;;;;;;;;;;;;;;28.16;38.98;97770.16;5001727;28;1967;-51
2021/07/21 04:03:41;;;;;;;;;;;;;;;28.24;38.73;97766.84;4993527;28;1608;-51
2021/07/21 04:06:06;;;;;;;;;;;;;;;28.18;38.88;97775.34;5001883;28;1221;-50
2021/07/21 04:08:31;;;;;;;;;;;;;;;28.04;39.18;97777.38;5008808;28;1601;-50
2021/07/21 04:10:56;;;;;;;;;;;;;;;28.20;38.52;97774.25;4998253;28;1688;-51
2021/07/21 04:13:22;;;;;;;;;;;;;;;28.13;38.65;97777.56;5007574;28;1509;-52
2021/07/21 04:15:47;;;;;;;;;;;;;;;28.13;38.86;97781.06;5005018;28;1147;-51
2021/07/21 04:18:13;;;;;;;;;;;;;;;28.13;38.87;97774.91;4999932;28;1288;-51
2021/07/21 04:20:38;;;;;;;;;;;;;;;28.10;38.89;97784.78;4999052;28;1454;-50
2021/07/21 04:23:03;;;;;;;;;;;;;;;28.12;38.84;97778.50;5001048;28;1918;-51
2021/07/21 04:25:28;;;;;;;;;;;;;;;28.15;38.85;97788.88;4996787;28;1850;-51
2021/07/21 04:27:53;;;;;;;;;;;;;;;28.10;38.88;97790.09;5001765;28;1332;-51
2021/07/21 04:30:19;;;;;;;;;;;;;;;28.10;38.64;97783.94;4999655;28;1479;-51
2021/07/21 04:32:44;;;;;;;;;;;;;;;28.22;38.41;97784.72;4998209;28;1644;-51
2021/07/21 04:35:12;;;;;;;;;;;;;;;28.15;38.87;97786.22;5006708;28;1803;-49
2021/07/21 04:37:38;;;;;;;;;;;;;;;28.13;38.81;97788.16;5007295;28;1736;-51
2021/07/21 04:40:03;;;;;;;;;;;;;;;28.17;38.88;97794.88;4999190;28;1616;-51
2021/07/21 04:42:28;;;;;;;;;;;;;;;28.26;38.55;97794.91;4997649;28;1957;-49
2021/07/21 04:44:54;;;;;;;;;;;;;;;28.23;38.53;97797.84;5009008;28;1628;-51
2021/07/21 04:47:19;;;;;;;;;;;;;;;28.16;38.59;97793.19;5009813;28;1284;-50
2021/07/21 04:49:45;;;;;;;;;;;;;;;28.13;38.55;97796.13;4997744;28;1499;-51
2021/07/21 04:52:10;;;;;;;;;;;;;;;28.26;38.54;97789.59;5007364;28;1758;-51
2021/07/21 04:54:35;;;;;;;;;;;;;;;28.05;39.00;97797.63;4997324;28;1565;-51
2021/07/21 04:57:00;;;;;;;;;;;;;;;28.22;38.45;97803.28;5010335;28;1264;-50
2021/07/21 04:59:26;;;;;;;;;;;;;;;28.17;38.60;97805.47;5004727;28;1560;-51
2021/07/21 05:01:51;;;;;;;;;;;;;;;28.19;38.73;97808.84;5007013;28;1899;-51
2021/07/21 05:04:17;;;;;;;;;;;;;;;28.06;39.08;97819.66;5008599;28;1189;-51
2021/07/21 05:06:42;;;;;;;;;;;;;;;28.17;38.46;97816.09;5005839;28;1565;-51
2021/07/21 05:09:07;;;;;;;;;;;;;;;28.14;38.41;97819.00;5010188;28;1136;-51
2021/07/21 05:11:33;;;;;;;;;;;;;;;28.12;38.63;97818.28;5007474;28;1759;-51
2021/07/21 05:13:58;;;;;;;;;;;;;;;28.16;38.65;97817.06;5010454;28;1200;-50
2021/07/21 05:16:23;;;;;;;;;;;;;;;28.12;38.75;97823.56;5009450;28;1257;-51
2021/07/21 05:18:48;;;;;;;;;;;;;;;28.04;39.07;97822.44;5008759;28;1638;-51
2021/07/21 05:21:14;;;;;;;;;;;;;;;28.17;38.69;97832.00;5007957;28;1997;-50
2021/07/21 05:23:39;;;;;;;;;;;;;;;28.26;38.58;97825.91;5009732;28;1125;-49
2021/07/21 05:26:05;;;;;;;;;;;;;;;28.03;38.70;97827.84;5007841;28;1642;-50
2021/07/21 05:28:30;;;;;;;;;;;;;;;28.18;38.47;97828.38;5008062;28;1292;-51
2021/07/21 05:30:56;;;;;;;;;;;;;;;28.20;38.06;97823.78;5010062;28;1089;-51
2021/07/21 05:33:21;;;;;;;;;;;;;;;28.26;38.25;97823.25;5006674;28;1646;-51
2021/07/21 05:35:46;;;;;;;;;;;;;;;28.10;38.76;97837.81;5010141;28;1122;-49
2021/07/21 05:38:11;;;;;;;;;;;;;;;28.19;38.49;97832.69;5008694;28;1498;-51
2021/07/21 05:40:37;;;;;;;;;;;;;;;28.09;38.53;97838.78;5010456;28;1650;-50
2021/07/21 05:43:04;;;;;;;;;;;;;;;28.18;38.51;97834.50;5011078;28;1910;-49
2021/07/21 05:45:29;;;;;;;;;;;;;;;28.01;38.95;97841.25;5013404;28;1214;-51
2021/07/21 05:47:54;;;;;;;;;;;;;;;28.11;38.79;97849.25;5010898;28;1378;-50
2021/07/21 05:50:20;;;;;;;;;;;;;;;27.99;39.06;97848.50;5012368;28;1645;-51
2021/07/21 05:52:45;;;;;;;;;;;;;;;28.15;38.55;97842.75;5012370;28;1043;-51
2021/07/21 05:55:11;;;;;;;;;;;;;;;28.05;38.65;97845.34;5012090;28;1665;-49
2021/07/21 05:57:36;;;;;;;;;;;;;;;28.18;38.30;97839.81;5012784;28;1357;-50
2021/07/21 06:00:02;;;;;;;;;;;;;;;28.18;38.49;97841.63;5012862;28;1531;-49
2021/07/21 06:02:27;;;;;;;;;;;;;;;28.16;38.59;97839.13;5012927;28;1906;-51
2021/07/21 06:04:52;;;;;;;;;;;;;;;28.23;38.56;97850.03;5010113;28;1598;-51
2021/07/21 06:07:18;;;;;;;;;;;;;;;28.07;38.96;97848.69;5014263;28;1257;-51
2021/07/21 06:09:43;;;;;;;;;;;;;;;28.14;38.38;97848.19;5010389;28;1669;-51
2021/07/21 06:12:08;;;;;;;;;;;;;;;28.13;38.61;97846.50;5012443;28;1236;-52
2021/07/21 06:14:33;;;;;;;;;;;;;;;28.04;38.50;97843.66;5011301;28;1280;-51
2021/07/21 06:16:59;;;;;;;;;;;;;;;28.12;38.85;97844.78;5013127;28;1375;-50
2021/07/21 06:19:24;;;;;;;;;;;;;;;28.08;38.84;97846.88;5010343;28;1598;-50
2021/07/21 06:21:49;;;;;;;;;;;;;;;28.01;39.10;97848.38;5011858;28;1918;-51
2021/07/21 06:24:15;;;;;;;;;;;;;;;28.28;38.03;97846.03;5007104;28;1530;-49
2021/07/21 06:26:41;;;;;;;;;;;;;;;28.12;38.54;97856.25;5011105;28;1611;-50
2021/07/21 06:29:06;;;;;;;;;;;;;;;28.20;38.54;97863.53;5009967;28;1280;-49
2021/07/21 06:31:32;;;;;;;;;;;;;;;28.03;38.69;97854.38;5011604;28;1205;-51
2021/07/21 06:33:57;;;;;;;;;;;;;;;28.11;38.47;97857.22;5010024;28;1874;-50
2021/07/21 06:36:22;;;;;;;;;;;;;;;28.08;38.74;97862.78;5012864;28;1198;-51
2021/07/21 06:38:47;;;;;;;;;;;;;;;28.12;38.76;97863.34;5011550;28;1255;-50
2021/07/21 06:41:13;;;;;;;;;;;;;;;28.10;38.70;97863.50;5011262;28;1622;-51
2021/07/21 06:43:39;;;;;;;;;;;;;;;28.05;38.85;97866.53;5002565;28;1963;-50
2021/07/21 06:46:04;;;;;;;;;;;;;;;28.12;38.85;97869.50;5011874;28;1259;-51
2021/07/21 06:48:29;;;;;;;;;;;;;;;28.10;38.86;97876.75;5008571;28;1670;-50
2021/07/21 06:50:54;;;;;;;;;;;;;;;28.12;38.94;97871.31;5011639;28;1085;-51
2021/07/21 06:53:19;;;;;;;;;;;;;;;28.13;38.60;97873.84;5010810;28;1260;-51
2021/07/21 06:55:45;;;;;;;;;;;;;;;28.16;38.84;97878.88;5011403;28;1517;-52
2021/07/21 06:58:10;;;;;;;;;;;;;;;28.16;38.57;97878.88;5011595;28;1293;-50
2021/07/21 07:00:35;;;;;;;;;;;;;;;28.13;38.48;97875.66;5012809;28;1149;-51
2021/07/21 07:03:00;;;;;;;;;;;;;;;28.08;38.88;97881.34;5011436;28;1903;-51
2021/07/21 07:05:26;;;;;;;;;;;;;;;28.14;38.83;97886.13;5010639;28;1595;-50
2021/07/21 07:07:51;;;;;;;;;;;;;;;28.16;38.58;97886.84;5010874;28;1371;-50
2021/07/21 07:10:18;;;;;;;;;;;;;;;28.03;38.99;97888.84;5009488;28;1557;-51
2021/07/21 07:12:43;;;;;;;;;;;;;;;28.18;38.33;97892.00;5011407;28;1174;-50
2021/07/21 07:15:09;;;;;;;;;;;;;;;28.15;38.58;97897.59;5011147;28;1196;-51
2021/07/21 07:17:34;;;;;;;;;;;;;;;28.15;38.64;97892.28;5011218;28;1585;-50
2021/07/21 07:19:59;;;;;;;;;;;;;;;28.17;38.54;97893.81;5011393;28;1067;-51
2021/07/21 07:22:25;;;;;;;;;;;;;;;28.01;39.04;97891.63;5011296;28;1973;-49
2021/07/21 07:24:50;;;;;;;;;;;;;;;28.00;38.92;97889.94;5009353;28;1682;-51
2021/07/21 07:27:15;;;;;;;;;;;;;;;28.07;38.41;97891.13;5009046;28;1415;-51
2021/07/21 07:29:41;;;;;;;;;;;;;;;28.24;38.74;97899.47;5006363;28;1621;-49
2021/07/21 07:32:06;;;;;;;;;;;;;;;28.16;38.39;97896.63;5005792;28;1719;-51
2021/07/21 07:34:31;;;;;;;;;;;;;;;28.14;38.62;97890.59;5010366;28;1013;-51
2021/07/21 07:36:57;;;;;;;;;;;;;;;28.13;38.69;97896.88;5007818;28;1731;-51
2021/07/21 07:39:22;;;;;;;;;;;;;;;28.08;38.92;97889.31;5009975;28;1003;-50
2021/07/21 07:41:47;;;;;;;;;;;;;;;28.16;38.52;97894.81;5007860;28;1963;-51
2021/07/21 07:44:13;;;;;;;;;;;;;;;28.13;38.65;97897.72;5009462;28;1374;-51
2021/07/21 07:46:38;;;;;;;;;;;;;;;28.02;38.93;97892.47;5010704;28;1341;-51
2021/07/21 07:49:04;;;;;;;;;;;;;;;28.00;38.97;97892.59;5009064;28;1480;-50
2021/07/21 07:51:29;;;;;;;;;;;;;;;28.04;38.63;97891.38;5009294;28;1358;-49
2021/07/21 07:53:55;;;;;;;;;;;;;;;28.19;38.63;97889.22;5009774;28;1336;-51
2021/07/21 07:56:20;;;;;;;;;;;;;;;28.13;38.79;97888.94;5008071;28;1515;-51
2021/07/21 07:58:45;;;;;;;;;;;;;;;28.09;38.95;97893.63;5005798;28;1682;-51
2021/07/21 08:01:10;;;;;;;;;;;;;;;28.17;38.84;97890.34;5008251;28;1518;-51
2021/07/21 08:03:36;;;;;;;;;;;;;;;28.15;38.92;97885.16;5009192;28;1906;-50
2021/07/21 08:06:01;;;;;;;;;;;;;;;28.10;38.95;97893.50;5008775;28;1751;-49
2021/07/21 08:08:27;;;;;;;;;;;;;;;28.13;38.93;97889.75;5009756;28;1795;-50
2021/07/21 08:10:52;;;;;;;;;;;;;;;28.15;38.74;97886.97;5008255;28;1654;-50
2021/07/21 08:13:19;;;;;;;;;;;;;;;28.06;38.81;97881.47;5007436;28;1331;-51
2021/07/21 08:15:44;;;;;;;;;;;;;;;28.04;39.07;97891.38;5009431;28;1434;-52
2021/07/21 08:18:10;;;;;;;;;;;;;;;28.31;38.39;97882.09;5008142;28;1674;-51
2021/07/21 08:20:35;;;;;;;;;;;;;;;28.04;38.75;97887.84;5008368;28;1288;-51
2021/07/21 08:23:00;;;;;;;;;;;;;;;28.11;38.87;97891.69;5010097;28;1910;-51
2021/07/21 08:25:25;;;;;;;;;;;;;;;28.06;39.19;97888.59;5009055;28;1599;-51
2021/07/21 08:27:52;;;;;;;;;;;;;;;28.19;38.74;97889.22;5011092;28;1304;-49
2021/07/21 08:30:18;;;;;;;;;;;;;;;28.14;39.03;97890.59;5006846;28;1288;-51
2021/07/21 08:32:44;;;;;;;;;;;;;;;28.07;39.04;97882.31;5010509;28;1267;-50
2021/07/21 08:35:10;;;;;;;;;;;;;;;28.21;38.71;97878.50;5008462;28;1641;-51
2021/07/21 08:37:35;;;;;;;;;;;;;;;28.14;38.83;97888.78;5009144;28;1403;-51
2021/07/21 08:40:02;;;;;;;;;;;;;;;28.18;38.72;97881.41;5006076;28;1729;-50
2021/07/21 08:42:27;;;;;;;;;;;;;;;28.23;38.60;97876.56;5010538;28;1906;-51
2021/07/21 08:44:52;;;;;;;;;;;;;;;28.31;38.62;97877.63;4993923;28;1608;-50
2021/07/21 08:47:18;;;;;;;;;;;;;;;28.29;38.51;97882.22;5010587;28;1290;-51
2021/07/21 08:49:43;;;;;;;;;;;;;;;28.22;38.69;97882.84;4998183;28;1260;-50
2021/07/21 08:52:08;;;;;;;;;;;;;;;28.25;38.29;97882.56;5007938;28;1422;-51
2021/07/21 08:54:34;;;;;;;;;;;;;;;28.30;38.59;97877.75;5007318;28;1783;-52
2021/07/21 08:56:59;;;;;;;;;;;;;;;28.19;38.60;97875.13;5004196;28;1435;-50
2021/07/21 08:59:24;;;;;;;;;;;;;;;28.22;38.74;97877.53;5001618;28;1229;-51
2021/07/21 09:01:49;;;;;;;;;;;;;;;28.26;38.47;97881.59;4999583;28;1910;-50
2021/07/21 09:04:15;;;;;;;;;;;;;;;28.28;38.42;97879.66;5008468;28;1606;-51
2021/07/21 09:06:41;;;;;;;;;;;;;;;28.15;38.71;97879.88;5000148;28;1459;-51
2021/07/21 09:09:07;;;;;;;;;;;;;;;28.24;38.86;97878.25;5009415;28;1196;-49
2021/07/21 09:11:33;;;;;;;;;;;;;;;28.25;38.66;97882.56;5005898;28;1725;-51
2021/07/21 09:13:58;;;;;;;;;;;;;;;28.25;38.61;97888.72;5001598;28;1155;-51
2021/07/21 09:16:23;;;;;;;;;;;;;;;28.05;39.08;97877.16;5011135;28;1427;-50
2021/07/21 09:18:49;;;;;;;;;;;;;;;28.12;38.94;97879.25;5012300;28;1567;-51
2021/07/21 09:21:15;;;;;;;;;;;;;;;28.15;38.93;97881.69;5009697;28;1425;-50
2021/07/21 09:23:45;;;;;;;;;;;;;;;28.07;39.02;97875.19;5013408;28;1974;-49
2021/07/21 09:26:10;;;;;;;;;;;;;;;28.15;38.93;97871.06;5010148;28;1610;-50
2021/07/21 09:28:35;;;;;;;;;;;;;;;28.30;38.60;97872.47;5014278;28;1248;-51
2021/07/21 09:31:01;;;;;;;;;;;;;;;28.13;38.88;97873.03;5012313;28;1251;-51
2021/07/21 09:33:26;;;;;;;;;;;;;;;28.18;38.80;97876.09;5012323;28;1539;-52
2021/07/21 09:35:51;;;;;;;;;;;;;;;28.18;38.66;97876.09;5001907;28;1424;-51
2021/07/21 09:38:18;;;;;;;;;;;;;;;28.19;38.72;97875.97;5013156;28;1237;-51
2021/07/21 09:40:44;;;;;;;;;;;;;;;28.33;38.52;97873.03;5009759;28;1685;-51
2021/07/21 09:43:10;;;;;;;;;;;;;;;28.36;38.43;97864.81;5012658;28;1911;-51
2021/07/21 09:45:38;;;;;;;;;;;;;;;28.29;38.83;97868.09;5011430;28;1347;-51
2021/07/21 09:48:03;;;;;;;;;;;;;;;28.19;38.52;97870.66;5012187;28;1603;-51
2021/07/21 09:50:30;;;;;;;;;;;;;;;28.20;39.01;97869.72;5011649;28;1411;-51
2021/07/21 09:53:04;;;;;;;;;;;;;;;28.21;38.71;97866.09;5011739;28;1125;-51
2021/07/21 09:55:29;;;;;;;;;;;;;;;28.19;38.56;97875.97;5011147;28;1619;-48
2021/07/21 09:57:58;;;;;;;;;;;;;;;28.19;38.92;97872.47;5012711;28;1486;-49
2021/07/21 10:00:24;;;;;;;;;;;;;;;28.23;38.69;97868.59;5012769;28;1142;-51
2021/07/21 10:02:50;;;;;;;;;;;;;;;28.19;38.79;97872.47;5012491;28;1906;-52
2021/07/21 10:05:15;;;;;;;;;;;;;;;28.24;38.54;97875.59;5011884;28;1622;-51
2021/07/21 10:07:49;;;;;;;;;;;;;;;28.28;38.57;97877.00;5011945;28;1418;-51
2021/07/21 10:10:18;;;;;;;;;;;;;;;28.26;38.91;97873.63;5010913;28;1630;-51
2021/07/21 10:12:43;;;;;;;;;;;;;;;28.27;38.84;97872.66;5011521;28;1419;-49
2021/07/21 10:15:09;;;;;;;;;;;;;;;28.27;38.59;97868.19;5013053;28;1189;-51
2021/07/21 10:17:34;;;;;;;;;;;;;;;28.20;38.80;97869.72;5011505;28;1526;-51
2021/07/21 10:19:59;;;;;;;;;;;;;;;28.25;38.61;97861.34;5012026;28;1579;-51
2021/07/21 10:22:25;;;;;;;;;;;;;;;28.19;39.06;97862.72;5011282;28;1968;-49
2021/07/21 10:24:50;;;;;;;;;;;;;;;28.25;38.62;97870.16;5012020;28;1658;-49
2021/07/21 10:27:15;;;;;;;;;;;;;;;28.15;39.03;97866.59;5012232;28;1240;-51
2021/07/21 10:29:42;;;;;;;;;;;;;;;28.09;39.15;97864.47;5013003;28;1198;-51
2021/07/21 10:32:07;;;;;;;;;;;;;;;28.17;38.97;97866.47;5009101;28;1697;-51
2021/07/21 10:34:32;;;;;;;;;;;;;;;28.13;38.73;97863.25;5013122;28;1169;-49
2021/07/21 10:36:57;;;;;;;;;;;;;;;28.20;38.58;97864.41;5011446;28;1311;-51
2021/07/21 10:39:29;;;;;;;;;;;;;;;28.24;38.68;97870.28;5012493;28;1244;-51
2021/07/21 10:41:54;;;;;;;;;;;;;;;28.22;38.69;97864.28;5010341;28;1972;-51
2021/07/21 10:44:20;;;;;;;;;;;;;;;28.32;38.75;97862.53;5010916;28;1607;-51
2021/07/21 10:46:46;;;;;;;;;;;;;;;28.32;38.60;97858.09;5000567;28;1533;-51
2021/07/21 10:49:22;;;;;;;;;;;;;;;28.19;38.74;97854.75;5011332;28;1288;-51
2021/07/21 10:52:20;;;;;;;;;;;;;;;28.23;38.73;97858.84;5007671;28;1458;-51
2021/07/21 11:00:19;;;;;;;;;;;;;;;28.16;38.80;97852.38;5010277;28;980;-50
2021/07/21 11:02:44;;;;;;;;;;;;;;;28.24;38.72;97852.56;5010179;28;1902;-51
2021/07/21 11:05:29;;;;;;;;;;;;;;;28.33;38.75;97850.97;5010980;28;1591;-48
2021/07/21 11:07:54;;;;;;;;;;;;;;;28.22;38.75;97851.84;5010501;28;1569;-51
2021/07/21 11:10:29;;;;;;;;;;;;;;;28.24;38.91;97847.25;5011714;28;1598;-50
2021/07/21 11:12:54;;;;;;;;;;;;;;;28.21;39.01;97841.38;5008015;28;1462;-50
2021/07/21 11:15:34;;;;;;;;;;;;;;;28.28;38.85;97846.03;5011040;28;1498;-51
2021/07/21 11:18:20;;;;;;;;;;;;;;;28.33;38.56;97838.53;5010809;28;1250;-52
2021/07/21 11:20:57;;;;;;;;;;;;;;;28.22;38.79;97840.41;4990350;28;1709;-51
2021/07/21 11:23:40;;;;;;;;;;;;;;;28.18;38.84;97844.28;5010682;28;1902;-51
2021/07/21 11:26:24;;;;;;;;;;;;;;;28.22;38.77;97835.94;5009326;28;1580;-50
2021/07/21 11:28:49;;;;;;;;;;;;;;;28.35;38.55;97838.41;5011082;28;1372;-50
2021/07/21 11:31:14;;;;;;;;;;;;;;;28.31;38.48;97826.41;5010438;28;1576;-51
2021/07/21 11:33:54;;;;;;;;;;;;;;;28.18;39.07;97831.84;5009914;28;1587;-51
2021/07/21 11:36:49;;;;;;;;;;;;;;;28.30;38.84;97824.72;5009906;28;1201;-49
2021/07/21 11:39:34;;;;;;;;;;;;;;;28.34;38.36;97826.94;5004014;28;1608;-49
2021/07/21 11:42:00;;;;;;;;;;;;;;;28.27;38.80;97831.06;5008489;28;1969;-52
2021/07/21 11:44:33;;;;;;;;;;;;;;;28.17;39.02;97835.47;5010539;28;1477;-51
2021/07/21 11:46:58;;;;;;;;;;;;;;;28.33;38.50;97827.09;5009537;28;1241;-50
2021/07/21 11:49:24;;;;;;;;;;;;;;;28.21;38.96;97821.00;5007967;28;1551;-51
2021/07/21 11:51:53;;;;;;;;;;;;;;;28.30;38.82;97822.06;5010476;28;1126;-51
2021/07/21 11:54:19;;;;;;;;;;;;;;;28.31;38.58;97818.44;5008585;28;1586;-51
2021/07/21 11:56:46;;;;;;;;;;;;;;;28.06;39.29;97820.50;5009932;28;1738;-51
2021/07/21 11:59:11;;;;;;;;;;;;;;;28.23;38.90;97816.41;5011090;28;1161;-51
2021/07/21 12:01:36;;;;;;;;;;;;;;;28.28;38.86;97821.28;5010585;28;1980;-51
2021/07/21 12:04:01;;;;;;;;;;;;;;;28.30;38.62;97817.59;5009563;28;1607;-51
2021/07/21 12:06:26;;;;;;;;;;;;;;;28.34;38.75;97815.50;5009925;28;1527;-51
2021/07/21 12:08:55;;;;;;;;;;;;;;;28.19;38.83;97812.31;5048477;22;1494;-51
2021/07/21 12:11:23;;;;;;;;;;;;;;;28.17;38.79;97814.28;5045820;28;1603;-49
2021/07/21 12:13:56;;;;;;;;;;;;;;;28.31;38.70;97807.81;5038693;28;1177;-49
2021/07/21 12:16:22;;;;;;;;;;;;;;;28.23;38.94;97807.63;5048541;28;1556;-49
2021/07/21 12:18:54;;;;;;;;;;;;;;;28.27;38.87;97809.00;5036717;28;1295;-50
2021/07/21 12:21:19;;;;;;;;;;;;;;;28.31;38.82;97811.31;5013650;28;1627;-51
2021/07/21 12:23:45;;;;;;;;;;;;;;;28.23;38.60;97805.81;5027246;28;1902;-51
2021/07/21 12:26:11;;;;;;;;;;;;;;;28.32;38.53;97806.84;5023916;28;1534;-49
2021/07/21 12:28:36;;;;;;;;;;;;;;;28.37;38.57;97807.31;5029534;28;1390;-51
2021/07/21 12:31:01;;;;;;;;;;;;;;;28.30;38.56;97801.69;5029317;28;1217;-50
2021/07/21 12:33:26;;;;;;;;;;;;;;;28.27;38.83;97795.75;5027446;28;1565;-51
2021/07/21 12:35:52;;;;;;;;;;;;;;;28.30;38.76;97795.53;5029359;28;1256;-51
2021/07/21 12:38:17;;;;;;;;;;;;;;;28.21;39.07;97799.78;5025851;28;1695;-52
2021/07/21 12:40:42;;;;;;;;;;;;;;;28.33;38.72;97805.88;5028285;28;1561;-49
2021/07/21 12:43:08;;;;;;;;;;;;;;;28.29;38.78;97799.13;5027515;28;1914;-51
2021/07/21 12:45:33;;;;;;;;;;;;;;;28.31;38.85;97798.06;5028954;28;1324;-50
2021/07/21 12:47:58;;;;;;;;;;;;;;;28.31;38.48;97802.53;5013060;28;1592;-51
2021/07/21 12:50:27;;;;;;;;;;;;;;;28.41;38.58;97799.91;5028715;28;1125;-50
2021/07/21 12:53:00;;;;;;;;;;;;;;;28.27;38.83;97796.59;5029727;28;969;-51
2021/07/21 12:55:36;;;;;;;;;;;;;;;28.25;38.75;97800.34;5011291;28;1646;-50
2021/07/21 12:58:03;;;;;;;;;;;;;;;28.23;38.69;97802.31;5024130;28;1500;-51
2021/07/21 13:00:29;;;;;;;;;;;;;;;28.22;38.97;97797.97;5029437;28;1121;-51
2021/07/21 13:03:01;;;;;;;;;;;;;;;28.23;38.89;97794.34;5027099;28;1910;-50
2021/07/21 13:05:26;;;;;;;;;;;;;;;28.35;38.51;97804.75;5028716;28;1585;-51
2021/07/21 13:07:59;;;;;;;;;;;;;;;28.25;38.71;97801.19;5027924;28;1660;-51